createdAt,value
2023-11-20T00:01:27.551Z,92366.03
2023-11-20T00:04:00.446Z,92373.16
2023-11-20T00:06:33.682Z,92377.00
2023-11-20T00:09:10.478Z,92385.16
2023-11-20T00:11:47.692Z,92381.59
2023-11-20T00:14:20.098Z,92382.34
2023-11-20T00:16:54.941Z,92396.78
2023-11-20T00:19:29.905Z,92388.09
2023-11-20T00:22:03.569Z,92390.00
2023-11-20T00:24:35.790Z,92399.72
2023-11-20T00:27:08.671Z,92392.22
2023-11-20T00:29:41.215Z,92392.56
2023-11-20T00:32:19.391Z,92400.81
2023-11-20T00:34:55.150Z,92399.50
2023-11-20T00:37:28.350Z,92407.28
2023-11-20T00:40:08.986Z,92410.03
2023-11-20T00:46:15.397Z,92399.06
2023-11-20T00:48:49.345Z,92394.13
2023-11-20T00:51:27.021Z,92383.06
2023-11-20T00:53:56.741Z,92383.91
2023-11-20T00:56:30.075Z,92374.59
2023-11-20T00:59:04.860Z,92376.63
2023-11-20T01:01:40.475Z,92376.63
2023-11-20T01:04:13.066Z,92371.72
2023-11-20T01:06:49.105Z,92378.75
2023-11-20T01:09:24.056Z,92377.47
2023-11-20T01:12:00.062Z,92383.75
2023-11-20T01:14:34.776Z,92388.50
2023-11-20T01:17:08.006Z,92380.19
2023-11-20T01:19:40.159Z,92377.44
2023-11-20T01:22:17.800Z,92390.25
2023-11-20T01:24:49.756Z,92375.03
2023-11-20T01:27:26.807Z,92367.69
2023-11-20T01:30:02.796Z,92374.50
2023-11-20T01:32:36.050Z,92380.09
2023-11-20T01:35:10.511Z,92386.00
2023-11-20T01:37:45.580Z,92388.34
2023-11-20T01:40:17.924Z,92394.34
2023-11-20T01:42:50.551Z,92389.34
2023-11-20T01:45:25.560Z,92393.66
2023-11-20T01:47:58.898Z,92396.84
2023-11-20T01:50:36.629Z,92388.22
2023-11-20T01:53:12.976Z,92404.69
2023-11-20T01:55:44.852Z,92409.00
2023-11-20T01:58:22.990Z,92409.31
2023-11-20T02:00:52.566Z,92410.06
2023-11-20T02:03:26.191Z,92417.84
2023-11-20T02:05:57.943Z,92403.56
2023-11-20T02:08:31.259Z,92393.41
2023-11-20T02:11:03.969Z,92400.91
2023-11-20T02:13:39.043Z,92400.13
2023-11-20T02:16:15.254Z,92397.78
2023-11-20T02:18:48.489Z,92388.19
2023-11-20T02:21:23.218Z,92388.13
2023-11-20T02:24:00.519Z,92391.75
2023-11-20T02:27:15.021Z,92387.34
2023-11-20T02:29:55.237Z,92390.53
2023-11-20T02:32:26.857Z,92385.78
2023-11-20T02:34:59.072Z,92377.16
2023-11-20T02:37:32.439Z,92382.69
2023-11-20T02:40:10.047Z,92374.00
2023-11-20T02:42:45.774Z,92371.50
2023-11-20T02:45:19.686Z,92368.16
2023-11-20T02:47:57.149Z,92369.38
2023-11-20T02:50:31.970Z,92373.59
2023-11-20T02:53:10.291Z,92360.00
2023-11-20T02:55:41.927Z,92360.81
2023-11-20T02:58:14.141Z,92364.13
2023-11-20T03:00:47.824Z,92361.97
2023-11-20T03:03:25.727Z,92365.28
2023-11-20T03:06:01.506Z,92368.63
2023-11-20T03:08:37.481Z,92361.19
2023-11-20T03:11:13.333Z,92354.06
2023-11-20T03:13:47.616Z,92349.56
2023-11-20T03:16:20.481Z,92352.97
2023-11-20T03:18:52.490Z,92343.47
2023-11-20T03:21:27.605Z,92348.72
2023-11-20T03:23:58.120Z,92342.19
2023-11-20T03:26:33.867Z,92353.25
2023-11-20T03:29:07.019Z,92345.50
2023-11-20T03:31:40.915Z,92347.59
2023-11-20T03:34:16.038Z,92345.03
2023-11-20T03:36:48.403Z,92344.03
2023-11-20T03:39:25.268Z,92338.09
2023-11-20T03:42:03.739Z,92337.44
2023-11-20T03:47:14.478Z,92336.91
2023-11-20T03:49:49.238Z,92317.75
2023-11-20T03:52:21.155Z,92325.72
2023-11-20T03:54:55.335Z,92328.16
2023-11-20T03:57:31.056Z,92318.44
2023-11-20T04:00:06.638Z,92320.69
2023-11-20T04:02:39.834Z,92319.97
2023-11-20T04:05:12.654Z,92322.81
2023-11-20T04:07:49.599Z,92322.03
2023-11-20T04:10:23.934Z,92324.81
2023-11-20T04:12:55.814Z,92321.66
2023-11-20T04:15:28.056Z,92326.09
2023-11-20T04:18:03.144Z,92321.97
2023-11-20T04:20:39.924Z,92321.34
2023-11-20T04:23:19.248Z,92331.00
2023-11-20T04:25:51.637Z,92322.09
2023-11-20T04:28:28.687Z,92336.19
2023-11-20T04:31:03.291Z,92333.31
2023-11-20T04:33:37.504Z,92329.91
2023-11-20T04:36:10.961Z,92337.66
2023-11-20T04:38:43.464Z,92341.31
2023-11-20T04:41:15.554Z,92340.75
2023-11-20T04:43:48.351Z,92339.16
2023-11-20T04:46:20.237Z,92339.59
2023-11-20T04:48:53.801Z,92332.59
2023-11-20T04:51:28.487Z,92345.50
2023-11-20T04:54:03.378Z,92341.66
2023-11-20T04:56:39.231Z,92342.91
2023-11-20T04:59:11.322Z,92340.16
2023-11-20T05:01:46.298Z,92345.41
2023-11-20T05:04:19.927Z,92343.31
2023-11-20T05:06:52.122Z,92341.13
2023-11-20T05:09:26.301Z,92341.53
2023-11-20T05:12:05.282Z,92347.69
2023-11-20T05:14:42.517Z,92351.41
2023-11-20T05:17:19.841Z,92353.56
2023-11-20T05:19:53.297Z,92351.66
2023-11-20T05:22:31.189Z,92348.09
2023-11-20T05:25:08.818Z,92349.97
2023-11-20T05:27:45.666Z,92358.28
2023-11-20T05:30:18.153Z,92347.06
2023-11-20T05:32:55.096Z,92357.06
2023-11-20T05:35:28.513Z,92360.47
2023-11-20T05:38:04.055Z,92376.09
2023-11-20T05:40:36.317Z,92364.19
2023-11-20T05:43:11.273Z,92357.31
2023-11-20T05:45:43.583Z,92357.47
2023-11-20T05:48:18.661Z,92370.34
2023-11-20T05:50:52.248Z,92354.94
2023-11-20T05:53:27.165Z,92354.22
2023-11-20T05:56:05.255Z,92354.22
2023-11-20T05:58:39.144Z,92361.50
2023-11-20T06:01:11.793Z,92368.94
2023-11-20T06:03:49.634Z,92370.38
2023-11-20T06:06:25.748Z,92370.53
2023-11-20T06:09:00.024Z,92369.28
2023-11-20T06:11:34.819Z,92372.28
2023-11-20T06:14:09.159Z,92378.00
2023-11-20T06:16:44.756Z,92380.75
2023-11-20T06:19:23.484Z,92380.59
2023-11-20T06:21:58.511Z,92375.16
2023-11-20T06:24:35.301Z,92385.53
2023-11-20T06:27:10.515Z,92381.41
2023-11-20T06:29:47.751Z,92384.09
2023-11-20T06:32:19.769Z,92383.34
2023-11-20T06:34:54.043Z,92373.78
2023-11-20T06:37:27.447Z,92370.28
2023-11-20T06:40:09.782Z,92368.38
2023-11-20T06:42:45.605Z,92372.03
2023-11-20T06:47:14.535Z,92382.25
2023-11-20T06:49:46.748Z,92380.03
2023-11-20T06:52:20.959Z,92377.56
2023-11-20T06:54:55.865Z,92377.16
2023-11-20T06:57:31.005Z,92370.75
2023-11-20T07:00:07.488Z,92380.06
2023-11-20T07:02:40.842Z,92372.03
2023-11-20T07:05:18.925Z,92381.78
2023-11-20T07:07:56.851Z,92384.91
2023-11-20T07:10:29.106Z,92383.03
2023-11-20T07:13:06.317Z,92384.16
2023-11-20T07:15:42.439Z,92376.75
2023-11-20T07:18:16.170Z,92370.56
2023-11-20T07:20:48.244Z,92383.59
2023-11-20T07:23:20.124Z,92371.44
2023-11-20T07:25:57.563Z,92368.72
2023-11-20T07:28:29.569Z,92370.94
2023-11-20T07:31:01.340Z,92360.44
2023-11-20T07:33:34.812Z,92353.28
2023-11-20T07:36:11.322Z,92351.94
2023-11-20T07:38:45.296Z,92346.06
2023-11-20T07:41:20.134Z,92357.03
2023-11-20T07:43:54.915Z,92350.91
2023-11-20T07:46:39.057Z,92360.22
2023-11-20T07:49:12.525Z,92360.84
2023-11-20T07:51:44.889Z,92356.84
2023-11-20T07:54:17.254Z,92341.78
2023-11-20T07:56:50.037Z,92349.75
2023-11-20T07:59:25.130Z,92345.44
2023-11-20T08:02:02.499Z,92351.56
2023-11-20T08:04:36.391Z,92366.06
2023-11-20T08:07:06.673Z,92371.44
2023-11-20T08:09:37.349Z,92366.69
2023-11-20T08:12:08.264Z,92368.09
2023-11-20T08:14:38.729Z,92358.84
2023-11-20T08:17:13.643Z,92345.81
2023-11-20T08:19:47.768Z,92337.66
2023-11-20T08:22:19.085Z,92339.06
2023-11-20T08:24:49.031Z,92329.09
2023-11-20T08:27:19.073Z,92333.81
2023-11-20T08:29:48.967Z,92330.34
2023-11-20T08:32:19.047Z,92338.06
2023-11-20T08:34:50.484Z,92340.13
2023-11-20T08:37:20.581Z,92341.78
2023-11-20T08:39:51.428Z,92340.69
2023-11-20T08:42:21.765Z,92327.19
2023-11-20T08:44:54.991Z,92347.69
2023-11-20T08:47:25.154Z,92351.03
2023-11-20T08:49:56.815Z,92347.16
2023-11-20T08:52:26.795Z,92345.09
2023-11-20T08:54:57.259Z,92346.44
2023-11-20T08:57:27.166Z,92349.34
2023-11-20T08:59:57.085Z,92344.00
2023-11-20T09:02:27.238Z,92334.19
2023-11-20T09:04:58.575Z,92324.94
2023-11-20T09:07:28.503Z,92325.06
2023-11-20T09:09:58.464Z,92338.50
2023-11-20T09:12:28.350Z,92325.72
2023-11-20T09:14:58.215Z,92311.38
2023-11-20T09:17:28.064Z,92322.66
2023-11-20T09:19:59.532Z,92304.88
2023-11-20T09:22:29.404Z,92308.97
2023-11-20T09:25:05.357Z,92295.09
2023-11-20T09:27:36.375Z,92293.78
2023-11-20T09:30:08.236Z,92291.06
2023-11-20T09:32:38.175Z,92296.06
2023-11-20T09:35:12.094Z,92300.16
2023-11-20T09:37:42.101Z,92300.69
2023-11-20T09:40:15.023Z,92293.34
2023-11-20T09:42:45.620Z,92300.38
2023-11-20T09:47:12.950Z,92288.53
2023-11-20T09:49:46.744Z,92294.69
2023-11-20T09:52:17.180Z,92289.19
2023-11-20T09:54:47.734Z,92291.53
2023-11-20T09:57:23.005Z,92291.16
2023-11-20T09:59:52.968Z,92292.63
2023-11-20T10:02:24.673Z,92296.25
2023-11-20T10:04:57.344Z,92296.78
2023-11-20T10:07:31.782Z,92295.88
2023-11-20T10:10:03.396Z,92287.75
2023-11-20T10:12:36.649Z,92290.91
2023-11-20T10:15:08.669Z,92284.28
2023-11-20T10:17:41.086Z,92284.41
2023-11-20T10:20:12.119Z,92275.34
2023-11-20T10:22:42.001Z,92277.03
2023-11-20T10:25:12.931Z,92285.06
2023-11-20T10:27:44.509Z,92276.44
2023-11-20T10:30:15.758Z,92274.78
2023-11-20T10:32:47.927Z,92282.22
2023-11-20T10:35:19.815Z,92282.38
2023-11-20T10:37:59.560Z,92268.78
2023-11-20T10:40:29.780Z,92272.50
2023-11-20T10:43:00.411Z,92270.44
2023-11-20T10:45:30.444Z,92265.66
2023-11-20T10:48:01.936Z,92268.47
2023-11-20T10:50:36.587Z,92266.31
2023-11-20T10:53:08.785Z,92263.41
2023-11-20T10:55:45.250Z,92266.47
2023-11-20T10:58:15.590Z,92265.72
2023-11-20T11:00:46.380Z,92265.53
2023-11-20T11:03:19.337Z,92266.69
2023-11-20T11:05:50.806Z,92267.78
2023-11-20T11:08:23.922Z,92264.88
2023-11-20T11:10:56.539Z,92274.13
2023-11-20T11:13:30.680Z,92266.84
2023-11-20T11:16:01.758Z,92273.47
2023-11-20T11:18:36.500Z,92276.41
2023-11-20T11:21:12.231Z,92271.63
2023-11-20T11:23:51.128Z,92275.91
2023-11-20T11:26:28.342Z,92275.75
2023-11-20T11:29:03.139Z,92270.09
2023-11-20T11:31:49.672Z,92269.38
2023-11-20T11:34:43.862Z,92260.53
2023-11-20T11:37:27.955Z,92267.31
2023-11-20T11:40:11.627Z,92262.94
2023-11-20T11:42:47.919Z,92283.78
2023-11-20T11:45:20.606Z,92280.63
2023-11-20T11:47:52.350Z,92283.84
2023-11-20T11:50:23.880Z,92280.66
2023-11-20T11:52:53.763Z,92277.06
2023-11-20T11:55:30.006Z,92287.03
2023-11-20T11:58:04.608Z,92293.41
2023-11-20T12:00:34.519Z,92282.09
2023-11-20T12:03:11.034Z,92289.81
2023-11-20T12:06:19.915Z,92281.59
2023-11-20T12:08:55.525Z,92284.06
2023-11-20T12:11:55.422Z,92281.72
2023-11-20T12:14:25.352Z,92281.06
2023-11-20T12:16:55.737Z,92286.41
2023-11-20T12:19:26.890Z,92281.31
2023-11-20T12:21:59.160Z,92267.97
2023-11-20T12:24:30.621Z,92279.53
2023-11-20T12:27:01.121Z,92271.97
2023-11-20T12:29:33.221Z,92279.81
2023-11-20T12:32:05.463Z,92274.97
2023-11-20T12:34:36.222Z,92283.66
2023-11-20T12:37:07.890Z,92285.75
2023-11-20T12:39:38.770Z,92293.97
2023-11-20T12:42:09.781Z,92291.66
2023-11-20T12:47:12.774Z,92279.81
2023-11-20T12:49:43.279Z,92280.34
2023-11-20T12:52:14.221Z,92283.91
2023-11-20T12:54:45.380Z,92289.16
2023-11-20T12:57:15.284Z,92292.72
2023-11-20T12:59:48.271Z,92289.69
2023-11-20T13:02:25.885Z,92285.41
2023-11-20T13:04:56.006Z,92286.53
2023-11-20T13:07:26.353Z,92276.31
2023-11-20T13:09:56.392Z,92283.47
2023-11-20T13:12:26.481Z,92282.63
2023-11-20T13:15:05.741Z,92277.97
2023-11-20T13:17:39.120Z,92281.53
2023-11-20T13:20:44.016Z,92276.69
2023-11-20T13:23:24.316Z,92278.75
2023-11-20T13:25:55.647Z,92283.41
2023-11-20T13:28:29.150Z,92276.78
2023-11-20T13:31:01.915Z,92282.84
2023-11-20T13:33:34.767Z,92283.22
2023-11-20T13:36:09.824Z,92279.78
2023-11-20T13:38:40.477Z,92280.06
2023-11-20T13:41:10.979Z,92278.16
2023-11-20T13:43:41.921Z,92284.47
2023-11-20T13:46:12.185Z,92283.88
2023-11-20T13:48:44.005Z,92278.94
2023-11-20T13:51:14.508Z,92286.06
2023-11-20T13:53:45.340Z,92279.47
2023-11-20T13:56:15.259Z,92285.91
2023-11-20T13:58:45.980Z,92289.47
2023-11-20T14:01:16.890Z,92288.81
2023-11-20T14:03:48.623Z,92290.13
2023-11-20T14:06:19.440Z,92292.47
2023-11-20T14:08:49.979Z,92279.41
2023-11-20T14:11:19.979Z,92288.06
2023-11-20T14:13:51.483Z,92293.41
2023-11-20T14:16:21.617Z,92289.91
2023-11-20T14:18:53.013Z,92303.06
2023-11-20T14:21:22.882Z,92298.78
2023-11-20T14:23:52.780Z,92297.13
2023-11-20T14:26:29.845Z,92300.97
2023-11-20T14:29:04.692Z,92299.88
2023-11-20T14:31:34.818Z,92303.28
2023-11-20T14:34:06.500Z,92305.03
2023-11-20T14:36:36.399Z,92304.59
2023-11-20T14:39:06.747Z,92303.56
2023-11-20T14:41:36.492Z,92313.00
2023-11-20T14:44:06.778Z,92316.50
2023-11-20T14:46:37.030Z,92316.28
2023-11-20T14:49:09.930Z,92315.94
2023-11-20T14:51:39.823Z,92317.28
2023-11-20T14:54:10.063Z,92322.50
2023-11-20T14:56:41.242Z,92320.13
2023-11-20T14:59:11.401Z,92324.06
2023-11-20T15:01:41.582Z,92325.03
2023-11-20T15:04:13.267Z,92327.31
2023-11-20T15:06:45.023Z,92327.56
2023-11-20T15:09:14.863Z,92330.19
2023-11-20T15:11:44.621Z,92329.97
2023-11-20T15:14:15.460Z,92327.59
2023-11-20T15:16:45.376Z,92333.78
2023-11-20T15:19:16.738Z,92326.19
2023-11-20T15:21:46.627Z,92319.56
2023-11-20T15:24:16.448Z,92328.78
2023-11-20T15:26:49.891Z,92332.22
2023-11-20T15:29:19.751Z,92332.66
2023-11-20T15:31:49.666Z,92339.91
2023-11-20T15:34:21.211Z,92351.78
2023-11-20T15:36:51.167Z,92348.44
2023-11-20T15:39:21.458Z,92352.25
2023-11-20T15:41:51.566Z,92359.34
2023-11-20T15:47:12.553Z,92360.44
2023-11-20T15:49:42.542Z,92359.47
2023-11-20T15:52:12.954Z,92362.09
2023-11-20T15:54:43.031Z,92368.13
2023-11-20T15:57:13.245Z,92371.34
2023-11-20T15:59:44.000Z,92375.34
2023-11-20T16:02:15.358Z,92377.72
2023-11-20T16:04:45.875Z,92380.41
2023-11-20T16:07:16.331Z,92387.84
2023-11-20T16:09:46.238Z,92382.03
2023-11-20T16:12:16.633Z,92395.75
2023-11-20T16:14:46.750Z,92392.16
2023-11-20T16:17:18.340Z,92386.47
2023-11-20T16:19:48.419Z,92400.56
2023-11-20T16:22:18.416Z,92403.03
2023-11-20T16:24:52.525Z,92407.13
2023-11-20T16:27:22.564Z,92405.41
2023-11-20T16:29:52.416Z,92406.81
2023-11-20T16:32:23.886Z,92399.53
2023-11-20T16:34:53.605Z,92408.22
2023-11-20T16:37:23.370Z,92406.25
2023-11-20T16:39:53.325Z,92399.00
2023-11-20T16:42:23.239Z,92403.19
2023-11-20T16:44:53.201Z,92398.94
2023-11-20T16:47:24.854Z,92389.63
2023-11-20T16:49:55.702Z,92397.19
2023-11-20T16:52:25.900Z,92396.16
2023-11-20T16:54:55.746Z,92395.00
2023-11-20T16:57:25.633Z,92403.53
2023-11-20T16:59:56.016Z,92405.69
2023-11-20T17:02:27.465Z,92412.44
2023-11-20T17:04:58.340Z,92409.53
2023-11-20T17:07:28.246Z,92406.41
2023-11-20T17:09:58.235Z,92412.53
2023-11-20T17:12:28.101Z,92415.75
2023-11-20T17:14:58.546Z,92403.00
2023-11-20T17:17:29.775Z,92409.72
2023-11-20T17:19:59.648Z,92409.38
2023-11-20T17:22:30.717Z,92397.94
2023-11-20T17:25:00.983Z,92399.28
2023-11-20T17:27:30.830Z,92400.50
2023-11-20T17:30:02.353Z,92404.31
2023-11-20T17:32:34.347Z,92412.50
2023-11-20T17:35:05.065Z,92411.94
2023-11-20T17:37:34.963Z,92416.97
2023-11-20T17:40:05.349Z,92417.91
2023-11-20T17:42:35.765Z,92419.75
2023-11-20T17:45:05.957Z,92430.13
2023-11-20T17:47:37.550Z,92436.34
2023-11-20T17:50:09.169Z,92435.41
2023-11-20T17:52:40.812Z,92435.09
2023-11-20T17:55:13.537Z,92438.31
2023-11-20T17:57:43.441Z,92440.38
2023-11-20T18:00:15.263Z,92449.81
2023-11-20T18:02:47.975Z,92441.41
2023-11-20T18:05:18.588Z,92448.44
2023-11-20T18:07:48.482Z,92443.44
2023-11-20T18:10:18.565Z,92450.81
2023-11-20T18:12:49.179Z,92437.50
2023-11-20T18:15:19.955Z,92438.72
2023-11-20T18:17:50.347Z,92432.25
2023-11-20T18:20:20.605Z,92434.44
2023-11-20T18:22:50.496Z,92437.31
2023-11-20T18:25:20.535Z,92434.25
2023-11-20T18:27:51.638Z,92427.78
2023-11-20T18:30:22.824Z,92442.06
2023-11-20T18:32:54.059Z,92439.25
2023-11-20T18:35:26.153Z,92441.91
2023-11-20T18:37:56.021Z,92440.22
2023-11-20T18:40:25.983Z,92433.41
2023-11-20T18:42:55.761Z,92439.09
2023-11-20T18:47:12.855Z,92448.50
2023-11-20T18:49:44.102Z,92446.84
2023-11-20T18:52:14.815Z,92442.25
2023-11-20T18:54:44.604Z,92458.41
2023-11-20T18:57:14.482Z,92453.41
2023-11-20T18:59:44.422Z,92459.19
2023-11-20T19:02:16.091Z,92456.34
2023-11-20T19:04:46.322Z,92458.00
2023-11-20T19:07:16.296Z,92458.75
2023-11-20T19:09:46.102Z,92450.91
2023-11-20T19:12:16.011Z,92455.41
2023-11-20T19:14:45.800Z,92451.19
2023-11-20T19:17:17.214Z,92448.84
2023-11-20T19:19:47.063Z,92445.34
2023-11-20T19:22:17.041Z,92448.97
2023-11-20T19:24:47.825Z,92433.53
2023-11-20T19:27:17.793Z,92435.78
2023-11-20T19:29:47.600Z,92433.63
2023-11-20T19:32:18.988Z,92442.88
2023-11-20T19:34:48.915Z,92433.22
2023-11-20T19:37:18.756Z,92438.75
2023-11-20T19:39:49.064Z,92435.75
2023-11-20T19:42:19.062Z,92436.75
2023-11-20T19:44:49.764Z,92440.75
2023-11-20T19:47:21.373Z,92444.56
2023-11-20T19:49:51.380Z,92443.59
2023-11-20T19:52:25.193Z,92444.25
2023-11-20T19:54:55.216Z,92449.91
2023-11-20T19:57:25.189Z,92437.31
2023-11-20T19:59:55.051Z,92448.75
2023-11-20T20:02:26.418Z,92447.72
2023-11-20T20:04:56.287Z,92452.53
2023-11-20T20:07:27.212Z,92457.78
2023-11-20T20:09:57.133Z,92445.72
2023-11-20T20:12:27.041Z,92462.97
2023-11-20T20:14:56.886Z,92459.50
2023-11-20T20:17:28.277Z,92449.19
2023-11-20T20:19:58.087Z,92452.88
2023-11-20T20:22:28.418Z,92453.06
2023-11-20T20:24:58.335Z,92455.63
2023-11-20T20:27:28.281Z,92462.13
2023-11-20T20:29:58.710Z,92457.22
2023-11-20T20:32:30.826Z,92469.13
2023-11-20T20:35:00.839Z,92462.63
2023-11-20T20:37:33.318Z,92462.63
2023-11-20T20:40:03.483Z,92463.94
2023-11-20T20:42:33.461Z,92474.63
2023-11-20T20:45:03.370Z,92471.03
2023-11-20T20:47:34.959Z,92470.56
2023-11-20T20:50:04.921Z,92466.78
2023-11-20T20:52:34.772Z,92477.63
2023-11-20T20:55:03.596Z,92476.94
2023-11-20T20:57:34.828Z,92467.91
2023-11-20T21:00:10.252Z,92474.28
2023-11-20T21:02:41.605Z,92476.88
2023-11-20T21:05:12.974Z,92478.47
2023-11-20T21:07:43.425Z,92487.94
2023-11-20T21:10:13.831Z,92482.75
2023-11-20T21:12:43.876Z,92487.09
2023-11-20T21:15:15.989Z,92484.09
2023-11-20T21:17:50.223Z,92487.34
2023-11-20T21:20:21.579Z,92493.00
2023-11-20T21:22:52.134Z,92498.22
2023-11-20T21:25:24.498Z,92493.06
2023-11-20T21:27:54.578Z,92498.47
2023-11-20T21:30:24.481Z,92492.38
2023-11-20T21:32:56.108Z,92498.97
2023-11-20T21:35:37.075Z,92498.75
2023-11-20T21:38:13.501Z,92499.28
2023-11-20T21:40:43.335Z,92502.19
2023-11-20T21:43:15.632Z,92501.38
2023-11-20T21:47:12.315Z,92492.19
2023-11-20T21:49:42.804Z,92501.16
2023-11-20T21:52:13.193Z,92501.09
2023-11-20T21:54:42.961Z,92495.22
2023-11-20T21:57:12.713Z,92503.81
2023-11-20T21:59:44.100Z,92491.13
2023-11-20T22:02:15.538Z,92490.66
2023-11-20T22:04:45.523Z,92493.38
2023-11-20T22:07:20.159Z,92491.78
2023-11-20T22:09:50.007Z,92489.06
2023-11-20T22:12:19.773Z,92484.28
2023-11-20T22:14:49.762Z,92496.56
2023-11-20T22:17:21.065Z,92482.41
2023-11-20T22:19:50.944Z,92486.50
2023-11-20T22:22:21.014Z,92487.09
2023-11-20T22:24:51.406Z,92481.13
2023-11-20T22:27:21.483Z,92476.44
2023-11-20T22:29:51.301Z,92475.69
2023-11-20T22:32:23.532Z,92476.81
2023-11-20T22:35:09.652Z,92482.88
2023-11-20T22:37:43.953Z,92475.97
2023-11-20T22:40:17.539Z,92481.44
2023-11-20T22:42:48.151Z,92478.06
2023-11-20T22:45:18.033Z,92479.59
2023-11-20T22:47:49.514Z,92478.25
2023-11-20T22:50:19.475Z,92474.91
2023-11-20T22:52:49.662Z,92468.69
2023-11-20T22:55:19.929Z,92476.41
2023-11-20T22:57:50.250Z,92479.59
2023-11-20T23:00:26.679Z,92486.84
2023-11-20T23:02:58.238Z,92477.66
2023-11-20T23:05:28.109Z,92484.03
2023-11-20T23:07:57.918Z,92479.53
2023-11-20T23:10:27.845Z,92482.31
2023-11-20T23:12:57.843Z,92477.59
2023-11-20T23:15:27.705Z,92485.38
2023-11-20T23:17:59.988Z,92477.66
2023-11-20T23:20:30.142Z,92482.00
2023-11-20T23:23:00.064Z,92480.75
2023-11-20T23:25:29.977Z,92477.41
2023-11-20T23:28:01.741Z,92478.47
2023-11-20T23:30:32.704Z,92478.69
2023-11-20T23:33:05.403Z,92478.69
2023-11-20T23:35:35.601Z,92483.59
2023-11-20T23:38:05.364Z,92476.94
2023-11-20T23:40:35.286Z,92478.53
2023-11-20T23:43:06.163Z,92490.50
2023-11-20T23:45:36.042Z,92493.41
2023-11-20T23:48:09.168Z,92487.56
2023-11-20T23:50:39.686Z,92492.06
2023-11-20T23:53:10.108Z,92499.00
2023-11-20T23:55:39.889Z,92497.88
2023-11-20T23:58:09.930Z,92499.69
